createdAt,value
2022-12-11T00:01:24.367Z,95.98
2022-12-11T00:03:50.767Z,96.03
2022-12-11T00:06:20.453Z,95.91
2022-12-11T00:08:47.718Z,96.07
2022-12-11T00:11:16.786Z,96.01
2022-12-11T00:13:43.721Z,96.05
2022-12-11T00:16:10.435Z,95.89
2022-12-11T00:18:40.125Z,96.07
2022-12-11T00:21:10.673Z,96.06
2022-12-11T00:23:37.114Z,96.19
2022-12-11T00:26:09.393Z,96.30
2022-12-11T00:28:36.006Z,96.06
2022-12-11T00:31:11.019Z,96.14
2022-12-11T00:33:37.539Z,96.10
2022-12-11T00:36:04.124Z,96.18
2022-12-11T00:38:30.507Z,96.11
2022-12-11T00:41:00.625Z,96.10
2022-12-11T00:43:26.967Z,96.09
2022-12-11T00:45:53.341Z,95.98
2022-12-11T00:48:19.772Z,96.13
2022-12-11T00:50:46.414Z,95.93
2022-12-11T00:53:12.755Z,95.97
2022-12-11T00:55:41.538Z,96.07
2022-12-11T00:58:09.120Z,96.19
2022-12-11T01:00:35.775Z,96.16
2022-12-11T01:03:02.885Z,96.29
2022-12-11T01:05:29.235Z,96.19
2022-12-11T01:07:55.768Z,96.29
2022-12-11T01:10:25.140Z,96.20
2022-12-11T01:13:00.958Z,96.06
2022-12-11T01:15:30.621Z,96.22
2022-12-11T01:17:58.031Z,96.12
2022-12-11T01:20:27.612Z,96.39
2022-12-11T01:22:56.246Z,96.26
2022-12-11T01:25:23.014Z,96.19
2022-12-11T01:27:54.097Z,96.25
2022-12-11T01:30:21.666Z,96.47
2022-12-11T01:32:48.363Z,96.44
2022-12-11T01:35:14.984Z,96.25
2022-12-11T01:37:41.390Z,96.57
2022-12-11T01:40:09.452Z,96.25
2022-12-11T01:42:35.982Z,96.23
2022-12-11T01:45:20.541Z,96.32
2022-12-11T01:47:48.542Z,96.38
2022-12-11T01:50:15.991Z,96.44
2022-12-11T01:52:45.597Z,96.59
2022-12-11T01:55:12.779Z,96.41
2022-12-11T01:57:43.558Z,96.39
2022-12-11T02:00:10.689Z,96.51
2022-12-11T02:02:37.094Z,96.49
2022-12-11T02:05:05.813Z,96.45
2022-12-11T02:07:38.807Z,96.52
2022-12-11T02:10:06.066Z,96.56
2022-12-11T02:12:48.609Z,96.48
2022-12-11T02:15:30.182Z,96.41
2022-12-11T02:18:09.911Z,96.38
2022-12-11T02:20:58.111Z,96.42
2022-12-11T02:23:39.229Z,96.42
2022-12-11T02:26:47.051Z,96.25
2022-12-11T02:29:22.799Z,96.44
2022-12-11T02:32:00.775Z,96.36
2022-12-11T02:35:01.709Z,96.53
2022-12-11T02:37:31.464Z,96.56
2022-12-11T02:39:58.024Z,96.71
2022-12-11T02:42:30.569Z,96.44
2022-12-11T02:45:00.707Z,96.28
2022-12-11T02:47:30.280Z,96.47
2022-12-11T02:50:00.292Z,96.41
2022-12-11T02:52:29.396Z,96.33
2022-12-11T02:54:58.891Z,96.40
2022-12-11T02:57:39.607Z,96.28
2022-12-11T03:00:08.462Z,96.31
2022-12-11T03:02:37.182Z,96.27
2022-12-11T03:05:04.424Z,96.48
2022-12-11T03:07:34.654Z,96.20
2022-12-11T03:10:01.089Z,96.25
2022-12-11T03:12:37.507Z,96.21
2022-12-11T03:15:07.542Z,96.21
2022-12-11T03:17:51.908Z,96.13
2022-12-11T03:20:47.479Z,96.19
2022-12-11T03:23:49.156Z,96.20
2022-12-11T03:26:18.321Z,96.02
2022-12-11T03:28:52.081Z,95.88
2022-12-11T03:31:26.035Z,95.76
2022-12-11T03:33:55.456Z,95.97
2022-12-11T03:36:27.058Z,95.78
2022-12-11T03:38:58.410Z,95.84
2022-12-11T03:41:27.313Z,95.76
2022-12-11T03:43:57.279Z,95.61
2022-12-11T03:46:29.540Z,95.72
2022-12-11T03:49:01.212Z,95.54
2022-12-11T03:51:31.074Z,95.59
2022-12-11T03:53:58.484Z,95.31
2022-12-11T03:56:30.168Z,95.43
2022-12-11T03:58:56.548Z,95.50
2022-12-11T04:01:22.928Z,95.19
2022-12-11T04:03:49.485Z,95.35
2022-12-11T04:06:15.844Z,94.87
2022-12-11T04:08:42.181Z,95.42
2022-12-11T04:11:27.198Z,94.92
2022-12-11T04:14:12.054Z,95.14
2022-12-11T04:16:38.503Z,94.96
2022-12-11T04:19:24.394Z,94.96
2022-12-11T04:22:20.074Z,94.93
2022-12-11T04:24:49.063Z,94.97
2022-12-11T04:27:35.860Z,94.58
2022-12-11T04:30:05.501Z,94.60
2022-12-11T04:32:31.919Z,94.56
2022-12-11T04:34:58.308Z,94.68
2022-12-11T04:37:24.805Z,94.75
2022-12-11T04:39:51.120Z,94.62
2022-12-11T04:42:17.567Z,94.33
2022-12-11T04:44:43.864Z,94.33
2022-12-11T04:47:10.284Z,94.10
2022-12-11T04:49:36.675Z,94.17
2022-12-11T04:52:04.002Z,94.10
2022-12-11T04:54:31.150Z,93.89
2022-12-11T04:56:57.722Z,94.02
2022-12-11T04:59:24.089Z,93.92
2022-12-11T05:01:50.437Z,93.78
2022-12-11T05:04:16.778Z,93.93
2022-12-11T05:06:43.147Z,93.90
2022-12-11T05:09:12.898Z,93.77
2022-12-11T05:11:39.446Z,93.85
2022-12-11T05:14:05.854Z,93.75
2022-12-11T05:16:32.377Z,93.87
2022-12-11T05:18:58.731Z,93.56
2022-12-11T05:21:25.804Z,93.60
2022-12-11T05:23:54.490Z,93.58
2022-12-11T05:26:21.215Z,93.43
2022-12-11T05:28:53.178Z,93.34
2022-12-11T05:31:22.599Z,93.41
2022-12-11T05:33:50.395Z,93.37
2022-12-11T05:36:34.843Z,93.31
2022-12-11T05:39:03.564Z,93.24
2022-12-11T05:41:32.471Z,93.33
2022-12-11T05:43:59.114Z,93.00
2022-12-11T05:46:28.513Z,93.00
2022-12-11T05:48:57.476Z,93.13
2022-12-11T05:51:24.530Z,92.99
2022-12-11T05:53:52.414Z,93.35
2022-12-11T05:56:24.937Z,93.12
2022-12-11T05:58:51.358Z,93.08
2022-12-11T06:01:22.192Z,93.10
2022-12-11T06:03:48.562Z,93.21
2022-12-11T06:06:15.886Z,93.09
2022-12-11T06:08:42.238Z,93.02
2022-12-11T06:11:09.282Z,93.23
2022-12-11T06:13:35.784Z,93.22
2022-12-11T06:16:04.196Z,92.89
2022-12-11T06:18:30.649Z,93.05
2022-12-11T06:20:57.211Z,93.08
2022-12-11T06:23:24.014Z,93.00
2022-12-11T06:25:50.361Z,93.10
2022-12-11T06:28:17.432Z,93.24
2022-12-11T06:30:44.853Z,93.10
2022-12-11T06:33:11.758Z,93.00
2022-12-11T06:35:41.909Z,93.12
2022-12-11T06:38:10.419Z,93.05
2022-12-11T06:40:36.775Z,93.02
2022-12-11T06:43:03.447Z,93.17
2022-12-11T06:45:29.861Z,92.99
2022-12-11T06:47:56.278Z,93.00
2022-12-11T06:50:22.600Z,92.76
2022-12-11T06:52:48.914Z,92.79
2022-12-11T06:55:15.371Z,92.75
2022-12-11T06:57:41.761Z,92.61
2022-12-11T07:00:08.686Z,92.58
2022-12-11T07:02:35.101Z,92.45
2022-12-11T07:05:01.512Z,92.49
2022-12-11T07:07:27.889Z,92.37
2022-12-11T07:09:54.446Z,92.30
2022-12-11T07:12:21.047Z,92.03
2022-12-11T07:14:47.551Z,92.08
2022-12-11T07:17:13.938Z,92.06
2022-12-11T07:19:40.782Z,92.32
2022-12-11T07:22:07.234Z,92.02
2022-12-11T07:24:33.613Z,92.30
2022-12-11T07:27:00.035Z,92.27
2022-12-11T07:29:26.380Z,92.31
2022-12-11T07:31:53.460Z,92.20
2022-12-11T07:34:19.921Z,92.09
2022-12-11T07:36:46.240Z,91.92
2022-12-11T07:39:12.812Z,91.85
2022-12-11T07:41:39.926Z,91.91
2022-12-11T07:44:06.369Z,91.90
2022-12-11T07:46:33.983Z,91.78
2022-12-11T07:49:01.198Z,91.63
2022-12-11T07:51:33.175Z,91.64
2022-12-11T07:54:05.683Z,91.49
2022-12-11T07:56:33.218Z,91.48
2022-12-11T07:59:01.191Z,91.38
2022-12-11T08:01:29.429Z,91.29
2022-12-11T08:03:57.212Z,91.23
2022-12-11T08:06:29.500Z,91.58
2022-12-11T08:08:57.583Z,91.20
2022-12-11T08:11:24.860Z,91.21
2022-12-11T08:13:51.683Z,91.47
2022-12-11T08:16:19.137Z,91.36
2022-12-11T08:18:47.291Z,91.30
2022-12-11T08:21:25.236Z,91.32
2022-12-11T08:23:53.863Z,91.49
2022-12-11T08:26:27.756Z,91.54
2022-12-11T08:28:54.917Z,91.67
2022-12-11T08:31:21.722Z,91.55
2022-12-11T08:33:49.350Z,91.35
2022-12-11T08:36:18.546Z,91.53
2022-12-11T08:38:44.884Z,91.51
2022-12-11T08:41:13.437Z,91.49
2022-12-11T08:43:40.426Z,91.60
2022-12-11T08:46:07.736Z,91.52
2022-12-11T08:48:36.908Z,91.43
2022-12-11T08:51:05.549Z,91.33
2022-12-11T08:53:32.982Z,91.21
2022-12-11T08:56:32.284Z,91.08
2022-12-11T08:59:01.821Z,91.00
2022-12-11T09:01:29.228Z,91.03
2022-12-11T09:03:56.665Z,90.95
2022-12-11T09:06:26.015Z,90.91
2022-12-11T09:08:53.681Z,90.98
2022-12-11T09:11:23.234Z,91.02
2022-12-11T09:13:50.073Z,90.86
2022-12-11T09:16:20.803Z,90.81
2022-12-11T09:18:50.152Z,90.72
2022-12-11T09:21:19.874Z,90.67
2022-12-11T09:23:47.102Z,90.52
2022-12-11T09:26:16.528Z,90.78
2022-12-11T09:28:46.583Z,90.41
2022-12-11T09:31:20.879Z,90.52
2022-12-11T09:33:47.577Z,90.74
2022-12-11T09:36:14.459Z,90.80
2022-12-11T09:38:43.300Z,90.61
2022-12-11T09:41:29.529Z,90.97
2022-12-11T09:44:11.147Z,90.63
2022-12-11T09:46:40.630Z,90.48
2022-12-11T09:49:26.415Z,90.91
2022-12-11T09:52:01.828Z,90.61
2022-12-11T09:54:28.422Z,90.91
2022-12-11T09:57:10.407Z,90.85
2022-12-11T10:00:05.648Z,90.87
2022-12-11T10:02:50.766Z,90.56
2022-12-11T10:05:26.471Z,90.75
2022-12-11T10:08:00.699Z,90.60
2022-12-11T10:10:47.655Z,90.49
2022-12-11T10:13:22.517Z,90.44
2022-12-11T10:16:00.554Z,90.24
2022-12-11T10:18:29.540Z,90.26
2022-12-11T10:21:00.835Z,90.33
2022-12-11T10:23:44.067Z,90.21
2022-12-11T10:26:18.575Z,89.99
2022-12-11T10:28:45.370Z,90.05
2022-12-11T10:31:22.413Z,90.17
2022-12-11T10:34:13.414Z,90.33
2022-12-11T10:36:42.333Z,90.23
2022-12-11T10:39:18.034Z,90.15
2022-12-11T10:41:49.703Z,90.01
2022-12-11T10:44:19.341Z,90.05
2022-12-11T10:47:09.011Z,90.02
2022-12-11T10:49:37.464Z,90.17
2022-12-11T10:52:24.395Z,90.07
2022-12-11T10:55:19.299Z,89.93
2022-12-11T10:57:46.607Z,90.09
2022-12-11T11:00:38.614Z,89.82
2022-12-11T11:03:22.387Z,89.96
2022-12-11T11:05:50.669Z,90.08
2022-12-11T11:08:22.669Z,89.91
2022-12-11T11:10:53.662Z,89.91
2022-12-11T11:13:23.152Z,89.85
2022-12-11T11:16:00.586Z,89.81
2022-12-11T11:18:29.523Z,89.75
2022-12-11T11:20:56.304Z,89.89
2022-12-11T11:23:25.559Z,89.92
2022-12-11T11:25:55.487Z,90.05
2022-12-11T11:28:31.028Z,89.57
2022-12-11T11:31:05.817Z,89.68
2022-12-11T11:33:39.645Z,89.74
2022-12-11T11:36:07.544Z,89.73
2022-12-11T11:39:18.911Z,89.90
2022-12-11T11:42:02.835Z,89.91
2022-12-11T11:44:37.891Z,89.66
2022-12-11T11:47:16.981Z,89.52
2022-12-11T11:50:12.687Z,89.62
2022-12-11T11:52:53.428Z,89.49
2022-12-11T11:55:42.467Z,89.62
2022-12-11T11:58:11.937Z,89.77
2022-12-11T12:00:38.620Z,89.82
2022-12-11T12:03:14.472Z,89.83
2022-12-11T12:06:18.449Z,89.63
2022-12-11T12:09:13.154Z,89.79
2022-12-11T12:12:09.919Z,89.89
2022-12-11T12:14:52.867Z,89.74
2022-12-11T12:17:22.879Z,89.44
2022-12-11T12:20:09.115Z,89.46
2022-12-11T12:22:50.595Z,89.26
2022-12-11T12:25:29.036Z,89.37
2022-12-11T12:28:06.498Z,89.04
2022-12-11T12:30:48.012Z,89.23
2022-12-11T12:33:35.256Z,89.30
2022-12-11T12:36:29.579Z,89.23
2022-12-11T12:39:11.836Z,89.13
2022-12-11T12:41:45.531Z,89.42
2022-12-11T12:44:22.681Z,89.17
2022-12-11T12:47:04.582Z,89.13
2022-12-11T12:49:46.680Z,89.11
2022-12-11T12:52:36.819Z,89.18
2022-12-11T12:55:20.995Z,89.18
2022-12-11T12:58:06.225Z,89.22
2022-12-11T13:00:43.754Z,89.25
2022-12-11T13:03:18.011Z,89.06
2022-12-11T13:06:00.093Z,88.92
2022-12-11T13:09:10.936Z,89.05
2022-12-11T13:11:37.331Z,89.09
2022-12-11T13:14:06.288Z,88.97
2022-12-11T13:16:43.935Z,89.27
2022-12-11T13:19:28.286Z,89.23
2022-12-11T13:22:21.442Z,88.98
2022-12-11T13:25:03.169Z,89.03
2022-12-11T13:27:53.915Z,89.22
2022-12-11T13:30:51.640Z,88.94
2022-12-11T13:33:23.084Z,89.20
2022-12-11T13:36:25.917Z,89.24
2022-12-11T13:39:04.769Z,89.35
2022-12-11T13:41:36.095Z,89.41
2022-12-11T13:44:03.592Z,89.32
2022-12-11T13:46:35.181Z,89.20
2022-12-11T13:49:06.105Z,89.19
2022-12-11T13:51:36.298Z,89.22
2022-12-11T13:54:17.075Z,89.30
2022-12-11T13:57:23.208Z,89.29
2022-12-11T13:59:55.547Z,89.36
2022-12-11T14:02:36.010Z,89.71
2022-12-11T14:05:10.161Z,89.64
2022-12-11T14:07:43.474Z,89.68
2022-12-11T14:10:25.637Z,89.49
2022-12-11T14:13:09.264Z,89.65
2022-12-11T14:15:40.029Z,89.68
2022-12-11T14:18:08.864Z,89.65
2022-12-11T14:20:35.706Z,89.53
2022-12-11T14:23:17.546Z,89.51
2022-12-11T14:25:57.215Z,89.55
2022-12-11T14:28:30.953Z,89.66
2022-12-11T14:31:00.594Z,89.58
2022-12-11T14:33:36.693Z,89.88
2022-12-11T14:36:09.179Z,89.78
2022-12-11T14:38:47.684Z,89.91
2022-12-11T14:41:20.799Z,89.88
2022-12-11T14:44:05.107Z,89.95
2022-12-11T14:46:52.076Z,89.73
2022-12-11T14:49:28.927Z,89.80
2022-12-11T14:51:59.997Z,89.73
2022-12-11T14:54:44.459Z,89.63
2022-12-11T14:57:21.093Z,89.45
2022-12-11T14:59:52.575Z,89.44
2022-12-11T15:02:29.441Z,89.56
2022-12-11T15:08:27.488Z,89.63
2022-12-11T15:11:04.516Z,89.57
2022-12-11T15:13:32.896Z,89.72
2022-12-11T15:16:00.506Z,89.71
2022-12-11T15:18:33.853Z,89.74
2022-12-11T15:21:07.525Z,89.60
2022-12-11T15:23:52.801Z,89.56
2022-12-11T15:26:44.643Z,89.51
2022-12-11T15:29:45.345Z,89.80
2022-12-11T15:32:14.063Z,89.56
2022-12-11T15:34:50.141Z,89.69
2022-12-11T15:37:36.676Z,89.72
2022-12-11T15:40:11.240Z,89.75
2022-12-11T15:42:42.529Z,89.73
2022-12-11T15:45:23.323Z,89.68
2022-12-11T15:47:51.047Z,89.83
2022-12-11T15:50:25.963Z,89.75
2022-12-11T15:52:56.595Z,89.57
2022-12-11T15:55:34.749Z,89.53
2022-12-11T15:58:05.907Z,89.74
2022-12-11T16:00:33.549Z,89.92
2022-12-11T16:03:02.659Z,89.91
2022-12-11T16:05:29.201Z,90.07
2022-12-11T16:07:59.881Z,89.83
2022-12-11T16:10:55.459Z,89.78
2022-12-11T16:13:47.659Z,89.81
2022-12-11T16:16:22.161Z,89.57
2022-12-11T16:18:51.072Z,89.70
2022-12-11T16:21:26.813Z,89.74
2022-12-11T16:23:56.163Z,89.86
2022-12-11T16:26:30.002Z,89.55
2022-12-11T16:29:06.178Z,89.69
2022-12-11T16:31:39.982Z,89.65
2022-12-11T16:34:06.734Z,89.77
2022-12-11T16:36:34.466Z,89.87
2022-12-11T16:39:00.964Z,89.89
2022-12-11T16:41:29.019Z,89.80
2022-12-11T16:43:55.543Z,90.15
2022-12-11T16:46:26.648Z,89.78
2022-12-11T16:48:53.152Z,89.76
2022-12-11T16:51:19.531Z,89.87
2022-12-11T16:53:46.721Z,89.86
2022-12-11T16:56:15.542Z,89.90
2022-12-11T16:58:44.167Z,89.64
2022-12-11T17:01:17.560Z,89.65
2022-12-11T17:03:44.447Z,89.80
2022-12-11T17:06:16.939Z,89.73
2022-12-11T17:08:46.728Z,89.85
2022-12-11T17:11:16.446Z,90.10
2022-12-11T17:13:46.166Z,89.74
2022-12-11T17:16:17.825Z,89.65
2022-12-11T17:18:44.695Z,89.56
2022-12-11T17:21:17.007Z,89.66
2022-12-11T17:23:45.198Z,89.85
2022-12-11T17:26:14.693Z,89.93
2022-12-11T17:28:45.573Z,89.96
2022-12-11T17:31:17.463Z,89.79
2022-12-11T17:33:48.903Z,89.92
2022-12-11T17:36:27.956Z,89.47
2022-12-11T17:39:05.643Z,89.78
2022-12-11T17:41:33.472Z,89.94
2022-12-11T17:44:03.028Z,89.78
2022-12-11T17:46:32.305Z,89.89
2022-12-11T17:49:03.113Z,89.80
2022-12-11T17:51:34.034Z,89.72
2022-12-11T17:54:04.660Z,89.77
2022-12-11T17:56:42.042Z,89.87
2022-12-11T17:59:09.716Z,89.89
2022-12-11T18:01:38.504Z,89.91
2022-12-11T18:04:09.447Z,89.96
2022-12-11T18:06:36.225Z,90.00
2022-12-11T18:09:06.950Z,90.08
2022-12-11T18:11:33.703Z,89.88
2022-12-11T18:14:00.275Z,90.27
2022-12-11T18:16:31.529Z,90.03
2022-12-11T18:18:59.578Z,90.05
2022-12-11T18:21:33.031Z,90.01
2022-12-11T18:24:02.073Z,90.09
2022-12-11T18:26:29.727Z,89.89
2022-12-11T18:28:58.411Z,90.11
2022-12-11T18:31:27.017Z,89.80
2022-12-11T18:33:54.142Z,90.01
2022-12-11T18:36:26.342Z,90.01
2022-12-11T18:38:53.893Z,90.25
2022-12-11T18:41:25.827Z,89.35
2022-12-11T18:43:56.111Z,89.36
2022-12-11T18:46:25.055Z,88.68
2022-12-11T18:48:51.683Z,88.58
2022-12-11T18:51:27.207Z,88.05
2022-12-11T18:53:53.751Z,87.74
2022-12-11T18:56:21.746Z,87.43
2022-12-11T18:58:51.218Z,87.41
2022-12-11T19:01:23.267Z,87.17
2022-12-11T19:04:00.649Z,87.24
2022-12-11T19:06:35.283Z,86.97
2022-12-11T19:09:05.102Z,86.79
2022-12-11T19:11:33.169Z,86.66
2022-12-11T19:14:02.602Z,86.33
2022-12-11T19:16:35.281Z,86.14
2022-12-11T19:19:05.242Z,86.15
2022-12-11T19:21:31.661Z,86.33
2022-12-11T19:23:59.254Z,86.18
2022-12-11T19:26:25.741Z,86.21
2022-12-11T19:28:53.227Z,85.74
2022-12-11T19:31:22.350Z,85.82
2022-12-11T19:33:49.455Z,85.94
2022-12-11T19:36:18.737Z,85.78
2022-12-11T19:38:45.573Z,85.99
2022-12-11T19:41:21.045Z,85.95
2022-12-11T19:43:47.750Z,86.04
2022-12-11T19:46:14.853Z,86.42
2022-12-11T19:48:41.731Z,86.44
2022-12-11T19:51:10.898Z,86.71
2022-12-11T19:53:37.731Z,86.88
2022-12-11T19:56:04.999Z,86.82
2022-12-11T19:58:31.938Z,86.74
2022-12-11T20:00:58.584Z,86.74
2022-12-11T20:03:25.187Z,86.43
2022-12-11T20:05:52.175Z,86.36
2022-12-11T20:08:43.399Z,86.39
2022-12-11T20:11:06.074Z,86.30
2022-12-11T20:13:32.484Z,86.36
2022-12-11T20:16:06.236Z,86.16
2022-12-11T20:18:32.696Z,86.30
2022-12-11T20:21:01.619Z,86.28
2022-12-11T20:23:28.042Z,86.39
2022-12-11T20:25:58.840Z,86.38
2022-12-11T20:28:25.571Z,86.44
2022-12-11T20:30:51.915Z,86.31
2022-12-11T20:33:18.481Z,86.77
2022-12-11T20:35:45.073Z,87.08
2022-12-11T20:38:11.536Z,87.17
2022-12-11T20:40:37.894Z,87.27
2022-12-11T20:43:04.191Z,86.89
2022-12-11T20:45:30.692Z,87.24
2022-12-11T20:47:57.143Z,87.19
2022-12-11T20:50:23.453Z,87.18
2022-12-11T20:52:49.773Z,87.11
2022-12-11T20:55:18.156Z,87.00
2022-12-11T20:57:45.317Z,86.97
2022-12-11T21:00:12.832Z,87.03
2022-12-11T21:02:39.167Z,87.29
2022-12-11T21:05:05.962Z,86.98
2022-12-11T21:07:32.299Z,87.02
2022-12-11T21:09:58.635Z,86.81
2022-12-11T21:12:31.219Z,87.22
2022-12-11T21:14:58.159Z,86.99
2022-12-11T21:17:24.463Z,86.71
2022-12-11T21:19:51.183Z,86.77
2022-12-11T21:22:17.718Z,86.16
2022-12-11T21:24:44.140Z,86.39
2022-12-11T21:27:10.479Z,86.41
2022-12-11T21:29:36.935Z,86.08
2022-12-11T21:32:03.535Z,86.46
2022-12-11T21:34:31.949Z,86.39
2022-12-11T21:36:58.323Z,86.39
2022-12-11T21:39:26.437Z,86.48
2022-12-11T21:41:52.770Z,86.61
2022-12-11T21:47:05.532Z,87.00
2022-12-11T21:49:31.998Z,86.86
2022-12-11T21:51:58.942Z,86.75
2022-12-11T21:54:25.242Z,86.71
2022-12-11T21:56:51.594Z,86.84
2022-12-11T21:59:18.008Z,87.34
2022-12-11T22:01:46.085Z,86.80
2022-12-11T22:04:13.152Z,87.00
2022-12-11T22:06:43.372Z,87.10
2022-12-11T22:09:12.285Z,86.97
2022-12-11T22:11:39.802Z,86.99
2022-12-11T22:14:07.036Z,87.17
2022-12-11T22:16:34.799Z,87.08
2022-12-11T22:19:01.291Z,87.04
2022-12-11T22:21:27.755Z,86.95
2022-12-11T22:23:54.193Z,87.08
2022-12-11T22:26:23.316Z,86.94
2022-12-11T22:28:50.642Z,87.12
2022-12-11T22:31:20.399Z,87.27
2022-12-11T22:33:49.490Z,87.43
2022-12-11T22:36:17.697Z,87.42
2022-12-11T22:38:44.134Z,87.55
2022-12-11T22:41:14.318Z,87.55
2022-12-11T22:43:44.782Z,87.76
2022-12-11T22:46:19.796Z,87.79
2022-12-11T22:48:46.689Z,87.88
2022-12-11T22:51:13.198Z,87.91
2022-12-11T22:53:39.925Z,87.74
2022-12-11T22:56:13.552Z,87.80
2022-12-11T22:58:40.350Z,87.75
2022-12-11T23:01:12.592Z,87.84
2022-12-11T23:03:39.174Z,87.98
2022-12-11T23:06:08.218Z,87.90
2022-12-11T23:08:35.554Z,88.02
2022-12-11T23:11:02.626Z,87.98
2022-12-11T23:13:29.104Z,88.07
2022-12-11T23:15:55.407Z,88.07
2022-12-11T23:18:21.761Z,87.99
2022-12-11T23:20:49.672Z,88.23
2022-12-11T23:23:16.921Z,88.20
2022-12-11T23:25:46.869Z,88.31
2022-12-11T23:28:13.353Z,88.45
2022-12-11T23:30:40.040Z,88.24
2022-12-11T23:33:09.289Z,88.38
2022-12-11T23:35:35.935Z,88.32
2022-12-11T23:38:02.822Z,88.47
2022-12-11T23:40:29.267Z,88.18
2022-12-11T23:42:55.586Z,88.21
2022-12-11T23:45:22.081Z,88.57
2022-12-11T23:47:48.558Z,88.15
2022-12-11T23:50:15.038Z,88.44
2022-12-11T23:52:41.395Z,88.47
2022-12-11T23:55:08.300Z,88.35
2022-12-11T23:57:35.591Z,88.31
